createdAt,value
2018-09-17T00:00:15.517Z,1011.08
2018-09-17T00:01:15.503Z,1011.09
2018-09-17T00:02:15.492Z,1011.09
2018-09-17T00:03:15.473Z,1011.08
2018-09-17T00:04:15.461Z,1011.07
2018-09-17T00:05:15.455Z,1011.07
2018-09-17T00:06:15.439Z,1011.08
2018-09-17T00:07:15.416Z,1011.12
2018-09-17T00:08:15.401Z,1011.14
2018-09-17T00:09:15.389Z,1011.16
2018-09-17T00:10:15.378Z,1011.15
2018-09-17T00:11:15.358Z,1011.16
2018-09-17T00:12:15.343Z,1011.19
2018-09-17T00:13:15.328Z,1011.17
2018-09-17T00:14:15.317Z,1011.21
2018-09-17T00:15:15.305Z,1011.23
2018-09-17T00:16:15.284Z,1011.2
2018-09-17T00:17:15.292Z,1011.17
2018-09-17T00:18:15.267Z,1011.15
2018-09-17T00:19:15.240Z,1011.17
2018-09-17T00:20:15.225Z,1011.16
2018-09-17T00:21:15.212Z,1011.17
2018-09-17T00:22:15.196Z,1011.15
2018-09-17T00:23:15.183Z,1011.09
2018-09-17T00:24:15.170Z,1011.08
2018-09-17T00:25:15.157Z,1011.08
2018-09-17T00:26:15.137Z,1011.03
2018-09-17T00:27:15.124Z,1011.02
2018-09-17T00:28:15.107Z,1011.06
2018-09-17T00:29:15.096Z,1011.08
2018-09-17T00:30:15.080Z,1011.07
2018-09-17T00:31:15.064Z,1011.1
2018-09-17T00:32:15.047Z,1011.1
2018-09-17T00:33:15.033Z,1011.07
2018-09-17T00:34:15.018Z,1011.05
2018-09-17T00:35:15.002Z,1011.07
2018-09-17T00:36:14.989Z,1011.08
2018-09-17T00:37:14.976Z,1011.08
2018-09-17T00:38:14.959Z,1011.12
2018-09-17T00:39:14.944Z,1011.1
2018-09-17T00:40:14.929Z,1011.08
2018-09-17T00:41:14.913Z,1011.1
2018-09-17T00:42:14.906Z,1011.12
2018-09-17T00:43:14.943Z,1011.14
2018-09-17T00:44:14.869Z,1011.11
2018-09-17T00:45:14.855Z,1011.1
2018-09-17T00:46:14.842Z,1011.1
2018-09-17T00:47:14.823Z,1011.09
2018-09-17T00:48:14.813Z,1011.06
2018-09-17T00:49:14.801Z,1011.06
2018-09-17T00:50:14.781Z,1011.08
2018-09-17T00:51:14.764Z,1011.05
2018-09-17T00:52:14.750Z,1011.08
2018-09-17T00:53:14.736Z,1011.12
2018-09-17T00:54:14.718Z,1011.13
2018-09-17T00:55:14.706Z,1011.13
2018-09-17T00:56:14.692Z,1011.08
2018-09-17T00:57:14.673Z,1011.11
2018-09-17T00:58:14.663Z,1011.11
2018-09-17T00:59:14.644Z,1011.12
2018-09-17T01:00:14.630Z,1011.1
2018-09-17T01:01:14.617Z,1011.09
2018-09-17T01:02:14.598Z,1011.1
2018-09-17T01:03:14.584Z,1011.07
2018-09-17T01:04:14.569Z,1011.06
2018-09-17T01:05:14.554Z,1011.06
2018-09-17T01:06:14.540Z,1011.03
2018-09-17T01:07:14.525Z,1010.99
2018-09-17T01:08:14.512Z,1011.02
2018-09-17T01:09:14.495Z,1010.99
2018-09-17T01:10:14.480Z,1010.99
2018-09-17T01:11:14.466Z,1010.98
2018-09-17T01:12:14.447Z,1011.03
2018-09-17T01:13:14.431Z,1011.04
2018-09-17T01:14:14.416Z,1011.08
2018-09-17T01:15:14.402Z,1011.06
2018-09-17T01:16:14.387Z,1011.06
2018-09-17T01:17:14.372Z,1011.07
2018-09-17T01:18:14.358Z,1011.09
2018-09-17T01:19:14.344Z,1011.1
2018-09-17T01:20:14.330Z,1011.1
2018-09-17T01:21:14.311Z,1011.13
2018-09-17T01:22:14.297Z,1011.13
2018-09-17T01:23:14.281Z,1011.1
2018-09-17T01:24:14.266Z,1011.06
2018-09-17T01:25:14.251Z,1011.11
2018-09-17T01:26:14.236Z,1011.09
2018-09-17T01:27:14.218Z,1011.07
2018-09-17T01:28:14.206Z,1011.06
2018-09-17T01:29:14.191Z,1011.07
2018-09-17T01:30:14.175Z,1011.08
2018-09-17T01:31:14.159Z,1011.07
2018-09-17T01:32:14.143Z,1011.07
2018-09-17T01:33:14.136Z,1011.1
2018-09-17T01:34:14.114Z,1011.11
2018-09-17T01:35:14.103Z,1011.11
2018-09-17T01:36:14.086Z,1011.08
2018-09-17T01:37:14.074Z,1011.09
2018-09-17T01:38:14.052Z,1011.15
2018-09-17T01:39:14.042Z,1011.11
2018-09-17T01:40:14.025Z,1011.13
2018-09-17T01:41:14.008Z,1011.08
2018-09-17T01:42:13.993Z,1011.07
2018-09-17T01:43:13.977Z,1011.04
2018-09-17T01:44:13.962Z,1011.01
2018-09-17T01:45:13.945Z,1010.99
2018-09-17T01:46:13.952Z,1010.94
2018-09-17T01:47:13.920Z,1010.92
2018-09-17T01:48:13.899Z,1010.88
2018-09-17T01:49:13.884Z,1010.85
2018-09-17T01:50:13.869Z,1010.84
2018-09-17T01:51:13.853Z,1010.83
2018-09-17T01:52:13.840Z,1010.84
2018-09-17T01:53:13.822Z,1010.87
2018-09-17T01:54:13.806Z,1010.88
2018-09-17T01:55:13.791Z,1010.94
2018-09-17T01:56:13.776Z,1010.91
2018-09-17T01:57:13.760Z,1010.9
2018-09-17T01:58:13.746Z,1010.9
2018-09-17T01:59:13.729Z,1010.88
2018-09-17T02:00:13.715Z,1010.89
2018-09-17T02:01:13.701Z,1010.87
2018-09-17T02:02:13.684Z,1010.86
2018-09-17T02:03:13.669Z,1010.86
2018-09-17T02:04:13.654Z,1010.84
2018-09-17T02:05:13.638Z,1010.83
2018-09-17T02:06:13.622Z,1010.86
2018-09-17T02:07:13.608Z,1010.8
2018-09-17T02:08:13.644Z,1010.84
2018-09-17T02:09:13.597Z,1010.79
2018-09-17T02:10:13.559Z,1010.79
2018-09-17T02:11:13.544Z,1010.75
2018-09-17T02:12:13.528Z,1010.76
2018-09-17T02:13:13.514Z,1010.77
2018-09-17T02:14:13.497Z,1010.77
2018-09-17T02:15:13.483Z,1010.74
2018-09-17T02:16:13.468Z,1010.76
2018-09-17T02:17:13.452Z,1010.8
2018-09-17T02:18:13.436Z,1010.78
2018-09-17T02:19:13.420Z,1010.8
2018-09-17T02:20:13.406Z,1010.78
2018-09-17T02:21:13.390Z,1010.76
2018-09-17T02:22:13.378Z,1010.74
2018-09-17T02:23:13.358Z,1010.76
2018-09-17T02:24:13.343Z,1010.68
2018-09-17T02:25:13.326Z,1010.67
2018-09-17T02:26:13.312Z,1010.66
2018-09-17T02:27:13.307Z,1010.61
2018-09-17T02:28:13.292Z,1010.58
2018-09-17T02:29:13.266Z,1010.59
2018-09-17T02:30:13.250Z,1010.55
2018-09-17T02:31:13.241Z,1010.61
2018-09-17T02:32:13.218Z,1010.6
2018-09-17T02:33:13.203Z,1010.59
2018-09-17T02:34:13.195Z,1010.61
2018-09-17T02:35:13.173Z,1010.65
2018-09-17T02:36:13.157Z,1010.68
2018-09-17T02:37:13.146Z,1010.66
2018-09-17T02:38:13.124Z,1010.74
2018-09-17T02:39:13.110Z,1010.76
2018-09-17T02:40:13.097Z,1010.81
2018-09-17T02:41:13.077Z,1010.85
2018-09-17T02:42:13.064Z,1010.84
2018-09-17T02:43:13.254Z,1010.89
2018-09-17T02:44:13.031Z,1010.87
2018-09-17T02:45:13.016Z,1010.9
2018-09-17T02:46:13.004Z,1010.93
2018-09-17T02:47:12.987Z,1010.96
2018-09-17T02:48:12.983Z,1010.96
2018-09-17T02:49:12.955Z,1010.95
2018-09-17T02:50:12.939Z,1010.96
2018-09-17T02:51:12.923Z,1011.01
2018-09-17T02:52:12.909Z,1011.02
2018-09-17T02:53:12.890Z,1011.03
2018-09-17T02:54:12.875Z,1010.97
2018-09-17T02:55:12.859Z,1010.9
2018-09-17T02:56:12.844Z,1010.89
2018-09-17T02:57:12.829Z,1010.87
2018-09-17T02:58:12.812Z,1010.88
2018-09-17T02:59:12.801Z,1010.85
2018-09-17T03:00:12.788Z,1010.87
2018-09-17T03:01:12.765Z,1010.84
2018-09-17T03:02:12.753Z,1010.85
2018-09-17T03:03:12.739Z,1010.89
2018-09-17T03:04:12.718Z,1010.89
2018-09-17T03:05:12.703Z,1010.86
2018-09-17T03:06:12.690Z,1010.86
2018-09-17T03:07:12.681Z,1010.91
2018-09-17T03:08:12.659Z,1010.9
2018-09-17T03:09:12.640Z,1010.91
2018-09-17T03:10:12.627Z,1010.94
2018-09-17T03:11:12.611Z,1010.96
2018-09-17T03:12:12.596Z,1011.01
2018-09-17T03:13:12.577Z,1011.02
2018-09-17T03:14:12.569Z,1011
2018-09-17T03:15:12.555Z,1010.98
2018-09-17T03:16:12.532Z,1010.97
2018-09-17T03:17:12.517Z,1010.95
2018-09-17T03:18:12.502Z,1010.98
2018-09-17T03:19:12.490Z,1010.98
2018-09-17T03:20:12.468Z,1011
2018-09-17T03:21:12.455Z,1010.98
2018-09-17T03:22:12.437Z,1011.05
2018-09-17T03:23:12.424Z,1011.02
2018-09-17T03:24:12.409Z,1011.04
2018-09-17T03:25:12.390Z,1011.01
2018-09-17T03:26:12.374Z,1010.98
2018-09-17T03:27:12.362Z,1011.01
2018-09-17T03:28:12.343Z,1011
2018-09-17T03:29:12.334Z,1011.03
2018-09-17T03:30:12.336Z,1011.1
2018-09-17T03:31:12.300Z,1011.07
2018-09-17T03:32:12.290Z,1011.07
2018-09-17T03:33:12.267Z,1011.06
2018-09-17T03:34:12.256Z,1011.03
2018-09-17T03:35:12.238Z,1011
2018-09-17T03:36:12.222Z,1011
2018-09-17T03:37:12.205Z,1011
2018-09-17T03:38:12.191Z,1010.97
2018-09-17T03:39:12.181Z,1010.99
2018-09-17T03:40:12.159Z,1010.99
2018-09-17T03:41:12.143Z,1011.04
2018-09-17T03:42:12.123Z,1011.05
2018-09-17T03:43:12.108Z,1011.03
2018-09-17T03:44:12.103Z,1011.06
2018-09-17T03:45:12.077Z,1011.04
2018-09-17T03:46:12.076Z,1011.06
2018-09-17T03:47:12.053Z,1011.12
2018-09-17T03:48:12.031Z,1011.1
2018-09-17T03:49:12.017Z,1011.08
2018-09-17T03:50:12.000Z,1011.05
2018-09-17T03:51:11.987Z,1011.06
2018-09-17T03:52:11.972Z,1011.05
2018-09-17T03:53:11.951Z,1011.01
2018-09-17T03:54:11.937Z,1011.05
2018-09-17T03:55:11.923Z,1011.03
2018-09-17T03:56:11.905Z,1010.99
2018-09-17T03:57:11.891Z,1010.99
2018-09-17T03:58:11.875Z,1010.98
2018-09-17T03:59:11.857Z,1010.96
2018-09-17T04:00:11.847Z,1011
2018-09-17T04:01:11.828Z,1010.94
2018-09-17T04:02:11.812Z,1010.95
2018-09-17T04:03:11.796Z,1010.95
2018-09-17T04:04:11.795Z,1010.96
2018-09-17T04:05:11.766Z,1010.9
2018-09-17T04:06:11.750Z,1010.89
2018-09-17T04:07:11.733Z,1010.88
2018-09-17T04:08:11.717Z,1010.9
2018-09-17T04:09:11.711Z,1010.9
2018-09-17T04:10:11.731Z,1010.9
2018-09-17T04:11:11.670Z,1010.89
2018-09-17T04:12:11.655Z,1010.9
2018-09-17T04:13:11.637Z,1010.92
2018-09-17T04:14:11.637Z,1010.92
2018-09-17T04:15:11.607Z,1010.93
2018-09-17T04:16:11.591Z,1010.89
2018-09-17T04:17:11.578Z,1010.9
2018-09-17T04:18:11.560Z,1010.88
2018-09-17T04:19:11.547Z,1010.95
2018-09-17T04:20:11.528Z,1010.91
2018-09-17T04:21:11.512Z,1010.88
2018-09-17T04:22:11.496Z,1010.91
2018-09-17T04:23:11.485Z,1010.93
2018-09-17T04:24:11.465Z,1010.91
2018-09-17T04:25:11.451Z,1010.92
2018-09-17T04:26:11.431Z,1010.91
2018-09-17T04:27:11.418Z,1010.86
2018-09-17T04:28:11.403Z,1010.84
2018-09-17T04:29:11.388Z,1010.86
2018-09-17T04:30:11.370Z,1010.84
2018-09-17T04:31:11.370Z,1010.86
2018-09-17T04:32:11.341Z,1010.87
2018-09-17T04:33:11.454Z,1010.89
2018-09-17T04:34:11.308Z,1010.88
2018-09-17T04:35:11.294Z,1010.86
2018-09-17T04:36:11.279Z,1010.93
2018-09-17T04:37:11.260Z,1010.94
2018-09-17T04:38:11.244Z,1010.96
2018-09-17T04:39:11.229Z,1010.94
2018-09-17T04:40:11.211Z,1010.98
2018-09-17T04:41:11.196Z,1011.01
2018-09-17T04:42:11.181Z,1010.98
2018-09-17T04:43:11.371Z,1010.99
2018-09-17T04:44:11.149Z,1010.94
2018-09-17T04:45:11.133Z,1010.94
2018-09-17T04:46:11.117Z,1010.93
2018-09-17T04:47:11.109Z,1010.93
2018-09-17T04:48:11.087Z,1010.96
2018-09-17T04:49:11.072Z,1010.97
2018-09-17T04:50:11.057Z,1010.97
2018-09-17T04:51:11.039Z,1010.97
2018-09-17T04:52:11.029Z,1010.99
2018-09-17T04:53:11.011Z,1011
2018-09-17T04:54:10.996Z,1011
2018-09-17T04:55:10.977Z,1011.02
2018-09-17T04:56:10.963Z,1011.03
2018-09-17T04:57:10.944Z,1011.06
2018-09-17T04:58:10.928Z,1011.04
2018-09-17T04:59:10.912Z,1011.06
2018-09-17T05:00:10.896Z,1011.05
2018-09-17T05:01:10.881Z,1011.08
2018-09-17T05:02:10.865Z,1011.08
2018-09-17T05:03:10.847Z,1011.1
2018-09-17T05:04:10.836Z,1011.09
2018-09-17T05:05:10.818Z,1011.09
2018-09-17T05:06:10.800Z,1011.09
2018-09-17T05:07:10.800Z,1011.08
2018-09-17T05:08:10.770Z,1011.05
2018-09-17T05:09:10.753Z,1011.05
2018-09-17T05:10:10.737Z,1011.04
2018-09-17T05:11:10.724Z,1011.07
2018-09-17T05:12:10.707Z,1011.06
2018-09-17T05:13:10.818Z,1011.07
2018-09-17T05:14:10.676Z,1011.13
2018-09-17T05:15:10.659Z,1011.15
2018-09-17T05:16:10.645Z,1011.16
2018-09-17T05:17:10.627Z,1011.16
2018-09-17T05:18:10.615Z,1011.16
2018-09-17T05:19:10.601Z,1011.22
2018-09-17T05:20:10.579Z,1011.17
2018-09-17T05:21:10.563Z,1011.19
2018-09-17T05:22:10.556Z,1011.19
2018-09-17T05:23:10.533Z,1011.19
2018-09-17T05:24:10.518Z,1011.17
2018-09-17T05:25:10.501Z,1011.22
2018-09-17T05:26:10.489Z,1011.24
2018-09-17T05:27:10.468Z,1011.23
2018-09-17T05:28:10.458Z,1011.24
2018-09-17T05:29:10.437Z,1011.24
2018-09-17T05:30:10.421Z,1011.25
2018-09-17T05:31:10.403Z,1011.27
2018-09-17T05:32:10.389Z,1011.31
2018-09-17T05:33:10.375Z,1011.29
2018-09-17T05:34:10.364Z,1011.3
2018-09-17T05:35:10.415Z,1011.29
2018-09-17T05:36:10.328Z,1011.32
2018-09-17T05:37:10.318Z,1011.35
2018-09-17T05:38:10.307Z,1011.32
2018-09-17T05:39:10.280Z,1011.35
2018-09-17T05:40:10.264Z,1011.39
2018-09-17T05:41:10.248Z,1011.34
2018-09-17T05:42:10.231Z,1011.38
2018-09-17T05:43:10.217Z,1011.41
2018-09-17T05:44:10.202Z,1011.39
2018-09-17T05:45:10.187Z,1011.42
2018-09-17T05:46:10.169Z,1011.43
2018-09-17T05:47:10.157Z,1011.4
2018-09-17T05:48:10.140Z,1011.45
2018-09-17T05:49:10.129Z,1011.41
2018-09-17T05:50:10.107Z,1011.45
2018-09-17T05:51:10.095Z,1011.45
2018-09-17T05:52:10.076Z,1011.44
2018-09-17T05:53:10.063Z,1011.46
2018-09-17T05:54:10.055Z,1011.45
2018-09-17T05:55:10.043Z,1011.51
2018-09-17T05:56:10.015Z,1011.51
2018-09-17T05:57:09.998Z,1011.51
2018-09-17T05:58:09.991Z,1011.51
2018-09-17T05:59:09.967Z,1011.53
2018-09-17T06:00:09.952Z,1011.53
2018-09-17T06:01:09.936Z,1011.53
2018-09-17T06:02:09.921Z,1011.5
2018-09-17T06:03:09.905Z,1011.55
2018-09-17T06:04:09.891Z,1011.53
2018-09-17T06:05:09.877Z,1011.5
2018-09-17T06:06:10.002Z,1011.48
2018-09-17T06:07:09.880Z,1011.49
2018-09-17T06:08:09.831Z,1011.5
2018-09-17T06:09:09.812Z,1011.49
2018-09-17T06:10:09.797Z,1011.5
2018-09-17T06:11:09.782Z,1011.48
2018-09-17T06:12:09.767Z,1011.51
2018-09-17T06:13:09.755Z,1011.5
2018-09-17T06:14:09.739Z,1011.52
2018-09-17T06:15:09.720Z,1011.53
2018-09-17T06:16:09.705Z,1011.49
2018-09-17T06:17:09.689Z,1011.51
2018-09-17T06:18:09.675Z,1011.52
2018-09-17T06:19:09.661Z,1011.52
2018-09-17T06:20:09.643Z,1011.5
2018-09-17T06:21:09.632Z,1011.55
2018-09-17T06:22:09.615Z,1011.52
2018-09-17T06:23:09.611Z,1011.58
2018-09-17T06:24:09.584Z,1011.61
2018-09-17T06:25:09.570Z,1011.67
2018-09-17T06:26:09.553Z,1011.64
2018-09-17T06:27:09.541Z,1011.65
2018-09-17T06:28:09.524Z,1011.69
2018-09-17T06:29:09.510Z,1011.65
2018-09-17T06:30:09.494Z,1011.71
2018-09-17T06:31:09.478Z,1011.74
2018-09-17T06:32:09.469Z,1011.76
2018-09-17T06:33:09.448Z,1011.77
2018-09-17T06:34:09.431Z,1011.8
2018-09-17T06:35:09.419Z,1011.77
2018-09-17T06:36:09.482Z,1011.81
2018-09-17T06:37:09.389Z,1011.83
2018-09-17T06:38:09.373Z,1011.8
2018-09-17T06:39:09.358Z,1011.82
2018-09-17T06:40:09.345Z,1011.84
2018-09-17T06:41:09.327Z,1011.88
2018-09-17T06:42:09.313Z,1011.86
2018-09-17T06:43:09.506Z,1011.89
2018-09-17T06:44:09.286Z,1011.91
2018-09-17T06:45:09.274Z,1011.89
2018-09-17T06:46:09.254Z,1011.93
2018-09-17T06:47:09.241Z,1012
2018-09-17T06:48:09.229Z,1011.98
2018-09-17T06:49:09.211Z,1011.93
2018-09-17T06:50:09.209Z,1011.95
2018-09-17T06:51:09.182Z,1011.89
2018-09-17T06:52:09.168Z,1011.89
2018-09-17T06:53:09.160Z,1011.93
2018-09-17T06:54:09.138Z,1011.89
2018-09-17T06:55:09.123Z,1011.94
2018-09-17T06:56:09.113Z,1011.95
2018-09-17T06:57:09.094Z,1011.94
2018-09-17T06:58:09.081Z,1011.95
2018-09-17T06:59:09.066Z,1011.9
2018-09-17T07:00:09.050Z,1011.92
2018-09-17T07:01:09.042Z,1011.91
2018-09-17T07:02:09.027Z,1011.94
2018-09-17T07:03:09.008Z,1011.91
2018-09-17T07:04:08.996Z,1011.91
2018-09-17T07:05:08.982Z,1011.95
2018-09-17T07:06:09.016Z,1011.87
2018-09-17T07:07:08.951Z,1011.9
2018-09-17T07:08:08.938Z,1011.89
2018-09-17T07:09:08.923Z,1011.9
2018-09-17T07:10:08.911Z,1011.88
2018-09-17T07:11:08.895Z,1011.85
2018-09-17T07:12:08.887Z,1011.82
2018-09-17T07:13:08.867Z,1011.83
2018-09-17T07:14:08.852Z,1011.82
2018-09-17T07:15:08.837Z,1011.8
2018-09-17T07:16:08.826Z,1011.8
2018-09-17T07:17:08.809Z,1011.79
2018-09-17T07:18:08.820Z,1011.8
2018-09-17T07:19:08.782Z,1011.78
2018-09-17T07:20:08.767Z,1011.81
2018-09-17T07:21:08.754Z,1011.78
2018-09-17T07:22:08.738Z,1011.79
2018-09-17T07:23:08.728Z,1011.83
2018-09-17T07:24:08.713Z,1011.83
2018-09-17T07:25:08.731Z,1011.84
2018-09-17T07:26:08.685Z,1011.78
2018-09-17T07:27:08.671Z,1011.79
2018-09-17T07:28:08.656Z,1011.76
2018-09-17T07:29:08.645Z,1011.74
2018-09-17T07:30:08.640Z,1011.73
2018-09-17T07:31:08.615Z,1011.79
2018-09-17T07:32:08.604Z,1011.69
2018-09-17T07:33:08.589Z,1011.7
2018-09-17T07:34:08.574Z,1011.68
2018-09-17T07:35:08.562Z,1011.71
2018-09-17T07:36:08.598Z,1011.69
2018-09-17T07:37:08.536Z,1011.68
2018-09-17T07:38:08.520Z,1011.64
2018-09-17T07:39:08.508Z,1011.67
2018-09-17T07:40:08.495Z,1011.7
2018-09-17T07:41:08.488Z,1011.68
2018-09-17T07:42:08.564Z,1011.71
2018-09-17T07:43:08.454Z,1011.72
2018-09-17T07:44:08.438Z,1011.71
2018-09-17T07:45:08.425Z,1011.71
2018-09-17T07:46:08.418Z,1011.68
2018-09-17T07:47:08.403Z,1011.7
2018-09-17T07:48:08.387Z,1011.7
2018-09-17T07:49:08.373Z,1011.7
2018-09-17T07:50:08.359Z,1011.69
2018-09-17T07:51:08.347Z,1011.72
2018-09-17T07:52:08.343Z,1011.67
2018-09-17T07:53:08.372Z,1011.71
2018-09-17T07:54:08.309Z,1011.74
2018-09-17T07:55:08.295Z,1011.77
2018-09-17T07:56:08.282Z,1011.76
2018-09-17T07:57:08.270Z,1011.76
2018-09-17T07:58:08.259Z,1011.79
2018-09-17T07:59:08.248Z,1011.81
2018-09-17T08:00:08.234Z,1011.79
2018-09-17T08:01:08.218Z,1011.77
2018-09-17T08:02:08.206Z,1011.78
2018-09-17T08:03:08.194Z,1011.78
2018-09-17T08:04:08.180Z,1011.8
2018-09-17T08:05:08.168Z,1011.77
2018-09-17T08:06:08.156Z,1011.77
2018-09-17T08:07:08.144Z,1011.77
2018-09-17T08:08:08.133Z,1011.76
2018-09-17T08:09:08.118Z,1011.77
2018-09-17T08:10:08.107Z,1011.78
2018-09-17T08:11:08.095Z,1011.79
2018-09-17T08:12:08.084Z,1011.74
2018-09-17T08:13:08.070Z,1011.73
2018-09-17T08:14:08.058Z,1011.72
2018-09-17T08:15:08.049Z,1011.74
2018-09-17T08:16:08.033Z,1011.76
2018-09-17T08:17:08.043Z,1011.78
2018-09-17T08:18:08.012Z,1011.79
2018-09-17T08:19:07.998Z,1011.78
2018-09-17T08:20:07.990Z,1011.73
2018-09-17T08:21:07.978Z,1011.72
2018-09-17T08:22:07.967Z,1011.72
2018-09-17T08:23:07.955Z,1011.65
2018-09-17T08:24:07.941Z,1011.65
2018-09-17T08:25:07.933Z,1011.65
2018-09-17T08:26:07.920Z,1011.69
2018-09-17T08:27:07.909Z,1011.65
2018-09-17T08:28:07.896Z,1011.64
2018-09-17T08:29:07.886Z,1011.65
2018-09-17T08:30:07.875Z,1011.61
2018-09-17T08:31:07.865Z,1011.63
2018-09-17T08:32:07.854Z,1011.63
2018-09-17T08:33:07.843Z,1011.63
2018-09-17T08:34:07.830Z,1011.6
2018-09-17T08:35:07.819Z,1011.6
2018-09-17T08:36:07.808Z,1011.61
2018-09-17T08:37:07.798Z,1011.57
2018-09-17T08:38:07.852Z,1011.55
2018-09-17T08:39:07.777Z,1011.62
2018-09-17T08:40:07.766Z,1011.62
2018-09-17T08:41:07.756Z,1011.6
2018-09-17T08:42:07.743Z,1011.66
2018-09-17T08:43:07.943Z,1011.61
2018-09-17T08:44:07.726Z,1011.66
2018-09-17T08:45:07.718Z,1011.63
2018-09-17T08:46:07.702Z,1011.65
2018-09-17T08:47:07.692Z,1011.67
2018-09-17T08:48:07.682Z,1011.66
2018-09-17T08:49:07.679Z,1011.74
2018-09-17T08:50:07.662Z,1011.71
2018-09-17T08:51:07.651Z,1011.69
2018-09-17T08:52:07.681Z,1011.75
2018-09-17T08:53:07.723Z,1011.71
2018-09-17T08:54:07.619Z,1011.7
2018-09-17T08:55:07.611Z,1011.7
2018-09-17T08:56:07.598Z,1011.69
2018-09-17T08:57:07.588Z,1011.65
2018-09-17T08:58:07.592Z,1011.64
2018-09-17T08:59:07.567Z,1011.63
2018-09-17T09:00:07.561Z,1011.64
2018-09-17T09:01:07.548Z,1011.63
2018-09-17T09:02:07.542Z,1011.64
2018-09-17T09:03:07.527Z,1011.66
2018-09-17T09:04:07.517Z,1011.63
2018-09-17T09:05:07.551Z,1011.65
2018-09-17T09:06:07.496Z,1011.64
2018-09-17T09:07:07.496Z,1011.66
2018-09-17T09:08:07.481Z,1011.63
2018-09-17T09:09:07.468Z,1011.65
2018-09-17T09:10:07.458Z,1011.66
2018-09-17T09:11:07.446Z,1011.67
2018-09-17T09:12:07.436Z,1011.65
2018-09-17T09:13:07.430Z,1011.65
2018-09-17T09:14:07.414Z,1011.62
2018-09-17T09:15:07.407Z,1011.63
2018-09-17T09:16:07.398Z,1011.62
2018-09-17T09:17:07.390Z,1011.6
2018-09-17T09:18:07.383Z,1011.62
2018-09-17T09:19:07.366Z,1011.63
2018-09-17T09:20:07.356Z,1011.58
2018-09-17T09:21:07.348Z,1011.64
2018-09-17T09:22:07.341Z,1011.62
2018-09-17T09:23:07.326Z,1011.62
2018-09-17T09:24:07.315Z,1011.63
2018-09-17T09:25:07.308Z,1011.59
2018-09-17T09:26:07.309Z,1011.56
2018-09-17T09:27:07.287Z,1011.54
2018-09-17T09:28:07.278Z,1011.55
2018-09-17T09:29:07.268Z,1011.59
2018-09-17T09:30:07.257Z,1011.61
2018-09-17T09:31:07.251Z,1011.61
2018-09-17T09:32:07.275Z,1011.6
2018-09-17T09:33:07.233Z,1011.59
2018-09-17T09:34:07.222Z,1011.61
2018-09-17T09:35:07.228Z,1011.59
2018-09-17T09:36:07.208Z,1011.6
2018-09-17T09:37:07.196Z,1011.57
2018-09-17T09:38:07.225Z,1011.57
2018-09-17T09:39:07.175Z,1011.53
2018-09-17T09:40:07.169Z,1011.54
2018-09-17T09:41:07.157Z,1011.52
2018-09-17T09:42:07.153Z,1011.5
2018-09-17T09:43:07.140Z,1011.51
2018-09-17T09:44:07.128Z,1011.55
2018-09-17T09:45:07.125Z,1011.54
2018-09-17T09:46:07.111Z,1011.54
2018-09-17T09:47:07.102Z,1011.55
2018-09-17T09:48:07.097Z,1011.51
2018-09-17T09:49:07.089Z,1011.49
2018-09-17T09:50:07.075Z,1011.45
2018-09-17T09:51:07.066Z,1011.47
2018-09-17T09:52:07.059Z,1011.45
2018-09-17T09:53:07.050Z,1011.44
2018-09-17T09:54:07.040Z,1011.45
2018-09-17T09:55:07.031Z,1011.48
2018-09-17T09:56:07.023Z,1011.47
2018-09-17T09:57:07.013Z,1011.52
2018-09-17T09:58:07.009Z,1011.47
2018-09-17T09:59:06.995Z,1011.44
2018-09-17T10:00:06.990Z,1011.49
2018-09-17T10:01:06.986Z,1011.52
2018-09-17T10:02:06.970Z,1011.49
2018-09-17T10:03:06.962Z,1011.49
2018-09-17T10:04:06.954Z,1011.49
2018-09-17T10:05:06.945Z,1011.49
2018-09-17T10:06:06.940Z,1011.41
2018-09-17T10:07:06.932Z,1011.42
2018-09-17T10:08:06.921Z,1011.45
2018-09-17T10:09:06.914Z,1011.38
2018-09-17T10:10:06.904Z,1011.39
2018-09-17T10:11:06.897Z,1011.42
2018-09-17T10:12:06.888Z,1011.43
2018-09-17T10:13:06.880Z,1011.37
2018-09-17T10:14:06.871Z,1011.34
2018-09-17T10:15:06.868Z,1011.32
2018-09-17T10:16:06.853Z,1011.33
2018-09-17T10:17:06.847Z,1011.31
2018-09-17T10:18:06.838Z,1011.33
2018-09-17T10:19:06.831Z,1011.3
2018-09-17T10:20:06.821Z,1011.3
2018-09-17T10:21:06.814Z,1011.29
2018-09-17T10:22:06.805Z,1011.29
2018-09-17T10:23:06.800Z,1011.27
2018-09-17T10:24:06.790Z,1011.26
2018-09-17T10:25:06.781Z,1011.32
2018-09-17T10:26:06.773Z,1011.32
2018-09-17T10:27:06.770Z,1011.33
2018-09-17T10:28:06.759Z,1011.29
2018-09-17T10:29:06.750Z,1011.29
2018-09-17T10:30:06.744Z,1011.25
2018-09-17T10:31:06.733Z,1011.27
2018-09-17T10:32:06.726Z,1011.24
2018-09-17T10:33:06.719Z,1011.22
2018-09-17T10:34:06.712Z,1011.2
2018-09-17T10:35:06.706Z,1011.18
2018-09-17T10:36:06.697Z,1011.18
2018-09-17T10:37:06.689Z,1011.21
2018-09-17T10:38:06.682Z,1011.17
2018-09-17T10:39:06.676Z,1011.17
2018-09-17T10:40:06.664Z,1011.16
2018-09-17T10:41:06.658Z,1011.2
2018-09-17T10:42:06.652Z,1011.15
2018-09-17T10:43:06.666Z,1011.1
2018-09-17T10:44:06.632Z,1011.14
2018-09-17T10:45:06.626Z,1011.14
2018-09-17T10:46:06.616Z,1011.12
2018-09-17T10:47:06.610Z,1011.12
2018-09-17T10:48:06.609Z,1011.06
2018-09-17T10:49:06.593Z,1011.06
2018-09-17T10:50:06.596Z,1011.09
2018-09-17T10:51:06.579Z,1011.13
2018-09-17T10:52:06.576Z,1011.09
2018-09-17T10:53:06.565Z,1011.07
2018-09-17T10:54:06.559Z,1011.03
2018-09-17T10:55:06.550Z,1011.05
2018-09-17T10:56:06.548Z,1011.02
2018-09-17T10:57:06.534Z,1010.99
2018-09-17T10:58:06.529Z,1010.98
2018-09-17T10:59:06.521Z,1010.94
2018-09-17T11:00:06.512Z,1010.96
2018-09-17T11:01:06.507Z,1010.96
2018-09-17T11:02:06.509Z,1010.95
2018-09-17T11:03:06.493Z,1010.99
2018-09-17T11:04:06.486Z,1010.98
2018-09-17T11:05:06.479Z,1010.98
2018-09-17T11:06:06.473Z,1010.99
2018-09-17T11:07:06.465Z,1011.01
2018-09-17T11:08:06.492Z,1010.99
2018-09-17T11:09:06.455Z,1011
2018-09-17T11:10:06.446Z,1010.98
2018-09-17T11:11:06.439Z,1011.03
2018-09-17T11:12:06.437Z,1011.03
2018-09-17T11:13:06.423Z,1011.01
2018-09-17T11:14:06.420Z,1010.98
2018-09-17T11:15:06.411Z,1011
2018-09-17T11:16:06.405Z,1010.99
2018-09-17T11:17:06.399Z,1010.99
2018-09-17T11:18:06.408Z,1011.01
2018-09-17T11:19:06.389Z,1011
2018-09-17T11:20:06.382Z,1010.95
2018-09-17T11:21:06.374Z,1011.01
2018-09-17T11:22:06.367Z,1010.97
2018-09-17T11:23:06.364Z,1010.93
2018-09-17T11:24:06.412Z,1010.94
2018-09-17T11:25:06.373Z,1010.89
2018-09-17T11:26:06.346Z,1011
2018-09-17T11:27:06.343Z,1010.92
2018-09-17T11:28:06.336Z,1010.95
2018-09-17T11:29:06.331Z,1010.98
2018-09-17T11:30:06.328Z,1010.94
2018-09-17T11:31:06.363Z,1010.97
2018-09-17T11:32:06.321Z,1010.95
2018-09-17T11:33:06.316Z,1011
2018-09-17T11:34:06.308Z,1011.1
2018-09-17T11:35:06.304Z,1011.06
2018-09-17T11:36:06.300Z,1011.01
2018-09-17T11:37:06.302Z,1011.02
2018-09-17T11:38:06.296Z,1011.06
2018-09-17T11:39:06.327Z,1011.04
2018-09-17T11:40:06.290Z,1011.02
2018-09-17T11:41:06.331Z,1011.02
2018-09-17T11:42:06.300Z,1011.09
2018-09-17T11:43:06.290Z,1011.03
2018-09-17T11:44:06.290Z,1011.01
2018-09-17T11:45:06.289Z,1010.98
2018-09-17T11:46:06.293Z,1010.92
2018-09-17T11:47:06.293Z,1010.93
2018-09-17T11:48:06.301Z,1010.96
2018-09-17T11:49:06.293Z,1010.93
2018-09-17T11:50:06.297Z,1010.95
2018-09-17T11:51:06.295Z,1010.94
2018-09-17T11:52:06.297Z,1010.96
2018-09-17T11:53:06.317Z,1010.91
2018-09-17T11:54:06.398Z,1010.89
2018-09-17T11:55:06.308Z,1010.87
2018-09-17T11:56:06.310Z,1010.89
2018-09-17T11:57:06.314Z,1010.9
2018-09-17T11:58:06.317Z,1010.87
2018-09-17T11:59:06.324Z,1010.87
2018-09-17T12:00:06.329Z,1010.87
2018-09-17T12:01:06.331Z,1010.86
2018-09-17T12:02:06.370Z,1010.86
2018-09-17T12:03:06.342Z,1010.85
2018-09-17T12:04:06.343Z,1010.93
2018-09-17T12:05:06.350Z,1010.89
2018-09-17T12:06:06.353Z,1010.91
2018-09-17T12:07:06.360Z,1010.9
2018-09-17T12:08:06.373Z,1010.89
2018-09-17T12:09:06.372Z,1010.93